Time;durP1;ratioP1;P1;durP2;ratioP2;P2;SDS_P1;SDS_P2;PMS_P1;PMS_P2;Temp;Humidity;BMP_temperature;BMP_pressure;BME280_temperature;BME280_humidity;BME280_pressure;Samples;Min_cycle;Max_cycle;Signal;HPM_P1;HPM_P2
2022/12/28 00:02:19;;;;;;;8.10;3.60;;;5.60;99.90;;;;;;5010572;28;20423;-75
2022/12/28 00:04:44;;;;;;;11.70;4.13;;;5.60;99.90;;;;;;5010273;28;20430;-75
2022/12/28 00:07:10;;;;;;;11.77;4.20;;;5.60;99.90;;;;;;5027906;28;20423;-75
2022/12/28 00:09:36;;;;;;;9.07;4.07;;;5.60;99.90;;;;;;5011573;28;20407;-75
2022/12/28 00:12:02;;;;;;;11.20;4.83;;;5.60;99.90;;;;;;5009797;28;20425;-75
2022/12/28 00:14:27;;;;;;;11.95;4.20;;;5.60;99.90;;;;;;5010418;28;20469;-75
2022/12/28 00:16:53;;;;;;;9.27;4.30;;;5.60;99.90;;;;;;5027829;28;20415;-75
2022/12/28 00:19:18;;;;;;;12.30;4.35;;;5.60;99.90;;;;;;5009375;28;20423;-75
2022/12/28 00:21:45;;;;;;;11.87;4.13;;;5.60;99.90;;;;;;5027658;28;20454;-75
2022/12/28 00:24:21;;;;;;;10.38;4.57;;;5.60;99.90;;;;;;5010562;28;20446;-75
2022/12/28 00:26:47;;;;;;;9.85;4.53;;;5.60;99.90;;;;;;5009038;28;20454;-75
2022/12/28 00:29:13;;;;;;;9.57;4.43;;;5.60;99.90;;;;;;5028676;28;20399;-75
2022/12/28 00:31:38;;;;;;;10.73;4.50;;;5.50;99.90;;;;;;5010612;28;20407;-75
2022/12/28 00:34:04;;;;;;;11.77;4.72;;;5.50;99.90;;;;;;5028653;28;20403;-75
2022/12/28 00:36:31;;;;;;;9.85;4.40;;;5.50;99.90;;;;;;5010326;28;20422;-75
2022/12/28 00:38:56;;;;;;;10.13;4.40;;;5.50;99.90;;;;;;5028688;28;20490;-75
2022/12/28 00:41:22;;;;;;;14.80;5.35;;;5.40;99.90;;;;;;5010371;28;20552;-75
2022/12/28 00:43:48;;;;;;;12.95;5.03;;;5.40;99.90;;;;;;5010426;28;20930;-75
2022/12/28 00:46:13;;;;;;;11.17;4.77;;;5.50;99.90;;;;;;5010500;28;20835;-75
2022/12/28 00:48:39;;;;;;;10.38;4.95;;;5.40;99.90;;;;;;5021114;28;20498;-75
2022/12/28 00:51:08;;;;;;;12.80;5.40;;;5.40;99.90;;;;;;5007643;28;20419;-75
2022/12/28 00:53:34;;;;;;;11.48;5.22;;;5.40;99.90;;;;;;5027671;28;20407;-75
2022/12/28 00:56:08;;;;;;;11.40;4.88;;;5.40;99.90;;;;;;5027575;28;20494;-75
2022/12/28 00:58:33;;;;;;;12.50;5.47;;;5.40;99.90;;;;;;4994065;28;20752;-75
2022/12/28 01:00:59;;;;;;;13.03;5.50;;;5.40;99.90;;;;;;4993645;28;20419;-75
2022/12/28 01:03:25;;;;;;;12.10;5.00;;;5.40;99.90;;;;;;5010265;28;20447;-75
2022/12/28 01:05:50;;;;;;;9.60;5.35;;;5.40;99.90;;;;;;5027141;28;20438;-75
2022/12/28 01:08:16;;;;;;;9.87;5.10;;;5.40;99.90;;;;;;5027915;28;20407;-75
2022/12/28 01:10:41;;;;;;;12.70;5.55;;;5.40;99.90;;;;;;5027942;28;20498;-75
2022/12/28 01:13:07;;;;;;;11.50;5.43;;;5.40;99.90;;;;;;5009840;28;20409;-75
2022/12/28 01:15:33;;;;;;;10.75;5.55;;;5.40;99.90;;;;;;5018597;28;20453;-75
2022/12/28 01:17:58;;;;;;;13.53;5.77;;;5.40;99.90;;;;;;5027854;28;20898;-75
2022/12/28 01:20:24;;;;;;;11.25;5.45;;;5.40;99.90;;;;;;5027704;28;20418;-75
2022/12/28 01:22:50;;;;;;;12.27;5.38;;;5.50;99.90;;;;;;5028202;28;20418;-75
2022/12/28 01:25:15;;;;;;;13.97;5.80;;;5.40;99.90;;;;;;5009214;28;20439;-74
2022/12/28 01:27:41;;;;;;;12.45;6.00;;;5.40;99.90;;;;;;5027815;28;20977;-75
2022/12/28 01:30:07;;;;;;;14.03;7.07;;;5.40;99.90;;;;;;5009823;28;20771;-75
2022/12/28 01:32:33;;;;;;;10.73;5.32;;;5.50;99.90;;;;;;5027651;28;20391;-75
2022/12/28 01:34:59;;;;;;;12.00;5.30;;;5.50;99.90;;;;;;5027265;28;20814;-75
2022/12/28 01:37:24;;;;;;;11.93;5.55;;;5.50;99.90;;;;;;5026115;28;21181;-75
2022/12/28 01:39:50;;;;;;;10.17;5.40;;;5.50;99.90;;;;;;5009482;28;20914;-75
2022/12/28 01:42:17;;;;;;;8.18;5.05;;;5.50;99.90;;;;;;5009175;28;20422;-75
2022/12/28 01:44:45;;;;;;;14.13;5.45;;;5.50;99.90;;;;;;4993227;28;20414;-75
2022/12/28 01:47:22;;;;;;;8.27;4.83;;;5.50;99.90;;;;;;5027027;28;20439;-75
2022/12/28 01:49:53;;;;;;;11.52;5.20;;;5.50;99.90;;;;;;5006779;28;20926;-75
2022/12/28 01:52:30;;;;;;;11.55;4.75;;;5.50;99.90;;;;;;5027301;28;20418;-75
2022/12/28 01:55:17;;;;;;;9.95;4.97;;;5.60;99.90;;;;;;5027568;28;20498;-75
2022/12/28 01:57:57;;;;;;;11.43;5.10;;;5.60;99.90;;;;;;5027407;28;20492;-75
2022/12/28 02:00:23;;;;;;;10.52;5.25;;;5.60;99.90;;;;;;5027095;28;20403;-75
2022/12/28 02:03:01;;;;;;;9.30;5.22;;;5.70;99.90;;;;;;5009121;28;20457;-75
2022/12/28 02:05:35;;;;;;;9.18;4.80;;;5.70;99.90;;;;;;4993351;28;20431;-75
2022/12/28 02:08:19;;;;;;;11.45;5.45;;;5.70;99.90;;;;;;5000823;28;20505;-75
2022/12/28 02:10:45;;;;;;;10.98;5.15;;;5.70;99.90;;;;;;5009113;28;20419;-75
2022/12/28 02:13:14;;;;;;;9.45;5.28;;;5.70;99.90;;;;;;5010204;28;20419;-75
2022/12/28 02:15:39;;;;;;;9.98;4.85;;;5.70;99.90;;;;;;5005985;28;20415;-76
2022/12/28 02:18:05;;;;;;;10.93;5.38;;;5.70;99.90;;;;;;5026687;28;20441;-75
2022/12/28 02:21:04;;;;;;;10.10;5.28;;;5.70;99.90;;;;;;5027235;28;20932;-76
2022/12/28 02:23:43;;;;;;;13.10;5.75;;;5.70;99.90;;;;;;4971461;28;20502;-75
2022/12/28 02:26:12;;;;;;;10.55;6.18;;;5.70;99.90;;;;;;5009496;28;20474;-75
2022/12/28 02:29:15;;;;;;;10.80;5.80;;;5.70;99.90;;;;;;5022656;28;20415;-75
2022/12/28 02:32:13;;;;;;;11.68;5.50;;;5.70;99.90;;;;;;5008842;28;20460;-75
2022/12/28 02:34:57;;;;;;;11.80;6.45;;;5.70;99.90;;;;;;5005055;28;20419;-75
2022/12/28 02:37:40;;;;;;;11.88;6.15;;;5.70;99.90;;;;;;5026455;28;20430;-75
2022/12/28 02:40:30;;;;;;;15.07;7.13;;;5.80;99.90;;;;;;5004031;28;20513;-75
2022/12/28 02:42:56;;;;;;;11.95;5.75;;;5.80;99.90;;;;;;5026194;28;20442;-76
2022/12/28 02:51:38;;;;;;;12.40;6.72;;;5.80;99.90;;;;;;5003836;28;20443;-75
2022/12/28 02:57:20;;;;;;;10.68;6.47;;;5.80;99.90;;;;;;5011847;28;20411;-76
2022/12/28 03:00:14;;;;;;;13.93;7.30;;;5.80;99.90;;;;;;5012504;28;20419;-76
2022/12/28 03:02:49;;;;;;;12.80;7.40;;;5.70;99.90;;;;;;5028535;28;20416;-75
2022/12/28 03:08:23;;;;;;;11.20;7.00;;;5.70;99.90;;;;;;5011777;28;20416;-76
2022/12/28 03:11:10;;;;;;;12.25;6.50;;;5.70;99.90;;;;;;5012403;28;20942;-76
2022/12/28 03:13:51;;;;;;;11.85;7.03;;;5.70;99.90;;;;;;5011887;28;20449;-75
2022/12/28 03:33:10;;;;;;;9.90;6.60;;;5.80;99.90;;;;;;5024862;28;20553;-73
2022/12/28 03:35:49;;;;;;;10.88;6.57;;;5.80;99.90;;;;;;5029567;28;20752;-73
2022/12/28 03:38:26;;;;;;;9.68;6.22;;;5.90;99.90;;;;;;5011456;28;20423;-73
2022/12/28 03:41:01;;;;;;;9.30;5.68;;;5.80;99.90;;;;;;5011647;28;20414;-73
2022/12/28 03:43:43;;;;;;;11.05;6.60;;;5.90;99.90;;;;;;5011688;28;20976;-73
2022/12/28 03:46:35;;;;;;;10.80;6.40;;;5.90;99.90;;;;;;5011454;28;20442;-73
2022/12/28 03:49:01;;;;;;;8.98;6.45;;;5.90;99.90;;;;;;5010818;28;21125;-73
2022/12/28 03:51:30;;;;;;;8.98;6.30;;;5.90;99.90;;;;;;5011430;28;20411;-73
2022/12/28 03:53:56;;;;;;;11.02;6.97;;;6.00;99.90;;;;;;5011399;28;20403;-73
2022/12/28 03:56:26;;;;;;;9.48;6.18;;;6.00;99.90;;;;;;5010913;28;20457;-73
2022/12/28 03:58:52;;;;;;;10.65;5.68;;;6.00;99.90;;;;;;5010862;28;20419;-73
2022/12/28 04:01:18;;;;;;;10.63;6.25;;;6.00;99.90;;;;;;5010175;28;20411;-73
2022/12/28 04:03:44;;;;;;;10.02;6.32;;;6.00;99.90;;;;;;5011311;28;20529;-73
2022/12/28 04:06:18;;;;;;;8.32;5.53;;;6.00;99.90;;;;;;5028986;28;20806;-73
2022/12/28 04:08:44;;;;;;;8.55;5.45;;;6.10;99.90;;;;;;5024650;28;20419;-73
2022/12/28 04:11:11;;;;;;;9.18;5.32;;;6.10;99.90;;;;;;5011207;28;20544;-73
2022/12/28 04:13:36;;;;;;;10.25;5.88;;;6.10;99.90;;;;;;5029336;28;20902;-73
2022/12/28 04:16:08;;;;;;;10.23;6.40;;;6.20;99.90;;;;;;5010920;28;20422;-73
2022/12/28 04:18:34;;;;;;;10.10;6.10;;;6.20;99.90;;;;;;5011226;28;20945;-73
2022/12/28 04:21:00;;;;;;;10.18;6.57;;;6.20;99.90;;;;;;5011046;28;20446;-73
2022/12/28 04:23:26;;;;;;;12.10;6.80;;;6.30;99.90;;;;;;5010945;28;20411;-73
2022/12/28 04:25:59;;;;;;;9.65;6.20;;;6.30;99.90;;;;;;5010262;28;20430;-73
2022/12/28 04:28:24;;;;;;;10.27;5.72;;;6.30;99.90;;;;;;5011121;28;20468;-73
2022/12/28 04:30:50;;;;;;;10.17;6.00;;;6.30;99.90;;;;;;5011080;28;20560;-73
2022/12/28 04:33:16;;;;;;;8.33;5.00;;;6.40;99.90;;;;;;5010670;28;20969;-73
2022/12/28 04:35:42;;;;;;;10.48;5.50;;;6.40;99.90;;;;;;5010370;28;20526;-73
2022/12/28 04:38:07;;;;;;;8.60;5.40;;;6.40;99.90;;;;;;5010670;28;20490;-73
2022/12/28 04:40:33;;;;;;;8.95;5.70;;;6.40;99.90;;;;;;5010459;28;20488;-73
2022/12/28 04:42:58;;;;;;;7.77;5.30;;;6.50;99.90;;;;;;5028463;28;20399;-73
2022/12/28 04:45:24;;;;;;;7.88;4.90;;;6.50;99.90;;;;;;5010590;28;20905;-73
2022/12/28 04:47:49;;;;;;;8.27;5.70;;;6.50;99.90;;;;;;5010758;28;20506;-73
2022/12/28 04:50:15;;;;;;;8.88;4.97;;;6.60;99.90;;;;;;5010010;28;20408;-73
2022/12/28 04:52:41;;;;;;;9.77;5.43;;;6.60;99.90;;;;;;5010574;28;20461;-73
2022/12/28 04:55:07;;;;;;;8.43;5.40;;;6.60;99.90;;;;;;5010660;28;20423;-73
2022/12/28 04:57:33;;;;;;;6.97;5.05;;;6.60;99.90;;;;;;5010973;28;20819;-73
2022/12/28 04:59:58;;;;;;;9.52;5.40;;;6.60;99.90;;;;;;5010032;28;20457;-73
2022/12/28 05:02:24;;;;;;;7.67;5.40;;;6.60;99.90;;;;;;5010712;28;20415;-73
2022/12/28 05:04:49;;;;;;;8.95;5.45;;;6.60;99.90;;;;;;5027391;28;20419;-73
2022/12/28 05:07:15;;;;;;;8.60;5.13;;;6.70;99.90;;;;;;5027879;28;20481;-73
2022/12/28 05:09:41;;;;;;;6.88;5.10;;;6.70;99.90;;;;;;5009937;28;20407;-73
2022/12/28 05:12:06;;;;;;;6.30;4.43;;;6.70;99.90;;;;;;5010226;28;20407;-73
2022/12/28 05:14:32;;;;;;;6.88;4.50;;;6.70;99.90;;;;;;5009712;28;20411;-73
2022/12/28 05:16:57;;;;;;;7.07;4.53;;;6.80;99.90;;;;;;5009874;28;20411;-73
2022/12/28 05:19:23;;;;;;;8.07;4.85;;;6.70;99.90;;;;;;5006076;28;20928;-73
2022/12/28 05:21:48;;;;;;;7.20;4.40;;;6.80;99.90;;;;;;5007057;28;20496;-73
2022/12/28 05:24:14;;;;;;;7.38;5.05;;;6.80;99.90;;;;;;5006712;28;20467;-73
2022/12/28 05:26:40;;;;;;;6.60;4.80;;;6.80;99.90;;;;;;5006893;28;20439;-73
2022/12/28 05:29:05;;;;;;;7.00;4.82;;;6.80;99.90;;;;;;5005986;28;20411;-73
2022/12/28 05:31:31;;;;;;;7.33;5.10;;;6.90;99.90;;;;;;5007786;28;20415;-73
2022/12/28 05:33:56;;;;;;;7.88;5.07;;;6.90;99.90;;;;;;5007521;28;20524;-73
2022/12/28 05:36:26;;;;;;;7.35;5.20;;;6.90;99.90;;;;;;5008216;28;20400;-73
2022/12/28 05:38:52;;;;;;;7.70;5.63;;;6.90;99.90;;;;;;5006183;28;20444;-73
2022/12/28 05:41:24;;;;;;;6.85;4.95;;;6.90;99.90;;;;;;5006198;28;20421;-73
2022/12/28 05:43:50;;;;;;;8.07;5.53;;;7.00;99.90;;;;;;5006516;28;20447;-73
2022/12/28 05:46:19;;;;;;;9.07;5.90;;;7.00;99.90;;;;;;5006773;28;20443;-73
2022/12/28 05:48:45;;;;;;;8.27;5.40;;;7.00;99.90;;;;;;5005705;28;20491;-73
2022/12/28 05:51:14;;;;;;;8.52;6.47;;;7.10;99.90;;;;;;5006751;28;20522;-73
2022/12/28 05:53:40;;;;;;;8.55;6.05;;;7.10;99.90;;;;;;5003478;28;20480;-73
2022/12/28 05:56:12;;;;;;;8.63;6.25;;;7.10;99.90;;;;;;5006300;28;20413;-73
2022/12/28 05:58:38;;;;;;;9.57;6.32;;;7.10;99.90;;;;;;5006158;28;20558;-73
2022/12/28 06:01:19;;;;;;;10.90;6.68;;;7.10;99.90;;;;;;5006216;28;20493;-73
2022/12/28 06:03:46;;;;;;;11.45;7.03;;;7.20;99.90;;;;;;5006973;28;20420;-73
2022/12/28 06:06:20;;;;;;;10.15;7.25;;;7.20;99.90;;;;;;5007736;28;20436;-73
2022/12/28 06:08:48;;;;;;;11.98;8.20;;;7.20;99.90;;;;;;5006545;28;20484;-73
2022/12/28 06:11:16;;;;;;;11.15;7.70;;;7.20;99.90;;;;;;5006193;28;20931;-73
2022/12/28 06:13:43;;;;;;;11.55;8.32;;;7.20;99.90;;;;;;5006738;28;20764;-73
2022/12/28 06:16:16;;;;;;;13.25;8.65;;;7.30;99.90;;;;;;5005665;28;20873;-73
2022/12/28 06:18:42;;;;;;;13.00;9.50;;;7.30;99.90;;;;;;5005877;28;20990;-73
2022/12/28 06:21:17;;;;;;;14.15;9.27;;;7.30;99.90;;;;;;5005857;28;20416;-73
2022/12/28 06:23:43;;;;;;;12.82;9.77;;;7.40;99.90;;;;;;5006084;28;20409;-73
2022/12/28 06:26:15;;;;;;;15.27;10.60;;;7.40;99.90;;;;;;5009796;28;20439;-73
2022/12/28 06:28:41;;;;;;;14.52;10.45;;;7.40;99.90;;;;;;5010787;28;20419;-73
2022/12/28 06:31:17;;;;;;;15.02;11.50;;;7.50;99.90;;;;;;5009238;28;20503;-75
2022/12/28 06:33:43;;;;;;;15.63;11.40;;;7.50;99.90;;;;;;5009963;28;20924;-73
2022/12/28 06:36:21;;;;;;;17.27;12.35;;;7.50;99.90;;;;;;5010831;28;20920;-74
2022/12/28 06:38:48;;;;;;;17.10;12.05;;;7.50;99.90;;;;;;5010955;28;20405;-74
2022/12/28 06:41:15;;;;;;;21.17;13.60;;;7.50;99.90;;;;;;5009051;28;20468;-73
2022/12/28 06:43:42;;;;;;;17.57;13.00;;;7.60;99.90;;;;;;5009556;28;20423;-73
2022/12/28 06:46:09;;;;;;;15.52;11.63;;;7.60;99.90;;;;;;5011069;28;20894;-73
2022/12/28 06:48:35;;;;;;;16.25;12.35;;;7.70;99.90;;;;;;5009456;28;20409;-76
2022/12/28 06:51:13;;;;;;;16.02;11.88;;;7.70;99.90;;;;;;5008881;28;20504;-76
2022/12/28 06:53:39;;;;;;;15.47;10.90;;;7.70;99.90;;;;;;5002759;28;20451;-76
2022/12/28 06:56:16;;;;;;;12.88;10.02;;;7.70;99.90;;;;;;4992242;28;20429;-76
2022/12/28 06:58:42;;;;;;;12.33;9.40;;;7.70;99.90;;;;;;5006151;28;20443;-73
2022/12/28 07:01:09;;;;;;;14.30;9.55;;;7.80;99.90;;;;;;4992332;28;20428;-73
2022/12/28 07:03:35;;;;;;;11.97;9.53;;;7.80;99.90;;;;;;5009192;28;20963;-73
2022/12/28 07:06:01;;;;;;;11.13;8.48;;;7.80;99.90;;;;;;5008655;28;20443;-73
2022/12/28 07:08:28;;;;;;;12.43;8.20;;;7.80;99.90;;;;;;5010913;28;20413;-73
2022/12/28 07:10:53;;;;;;;10.43;7.72;;;7.80;99.90;;;;;;5010444;28;20903;-73
2022/12/28 07:13:19;;;;;;;11.03;8.10;;;7.80;99.90;;;;;;5008219;28;20520;-73
2022/12/28 07:15:45;;;;;;;10.60;7.60;;;7.80;99.90;;;;;;5009048;28;20777;-73
2022/12/28 07:18:10;;;;;;;10.37;7.73;;;7.90;99.90;;;;;;5008247;28;20544;-73
2022/12/28 07:20:36;;;;;;;10.52;7.35;;;7.90;99.90;;;;;;5009869;28;20513;-73
2022/12/28 07:23:02;;;;;;;10.02;7.93;;;7.80;99.90;;;;;;5010020;28;20412;-73
2022/12/28 07:25:27;;;;;;;11.43;7.67;;;7.90;99.90;;;;;;5009859;28;20424;-73
2022/12/28 07:27:53;;;;;;;10.63;7.93;;;7.90;99.90;;;;;;5010063;28;20488;-74
2022/12/28 07:30:19;;;;;;;11.53;8.03;;;7.90;99.90;;;;;;5009417;28;20416;-74
2022/12/28 07:32:44;;;;;;;10.65;8.15;;;7.90;99.90;;;;;;5008833;28;20405;-74
2022/12/28 07:35:10;;;;;;;12.10;8.07;;;7.90;99.90;;;;;;5007533;28;20441;-73
2022/12/28 07:37:35;;;;;;;10.73;8.27;;;8.00;99.90;;;;;;5007504;28;20879;-74
2022/12/28 07:40:01;;;;;;;11.60;8.03;;;8.00;99.90;;;;;;5008511;28;20416;-74
2022/12/28 07:42:30;;;;;;;11.07;8.30;;;8.00;99.90;;;;;;5008930;28;20420;-74
2022/12/28 07:44:56;;;;;;;11.80;8.00;;;7.90;99.90;;;;;;5009483;28;21001;-74
2022/12/28 07:47:21;;;;;;;11.80;8.30;;;8.00;99.90;;;;;;5007548;28;20571;-74
2022/12/28 07:49:47;;;;;;;12.03;8.37;;;8.00;99.90;;;;;;5008858;28;20540;-74
2022/12/28 07:52:12;;;;;;;13.00;8.63;;;8.00;99.90;;;;;;5007780;28;20409;-74
2022/12/28 07:54:38;;;;;;;13.00;8.67;;;8.00;99.90;;;;;;5006809;28;20778;-74
2022/12/28 07:57:04;;;;;;;11.30;8.20;;;8.00;99.90;;;;;;5006937;28;20455;-74
2022/12/28 07:59:29;;;;;;;11.52;8.48;;;8.10;99.90;;;;;;5007356;28;21151;-74
2022/12/28 08:01:55;;;;;;;13.17;9.10;;;8.10;99.90;;;;;;5006833;28;20412;-74
2022/12/28 08:04:20;;;;;;;14.55;9.25;;;8.10;99.90;;;;;;5006195;28;20417;-74
2022/12/28 08:06:46;;;;;;;19.20;12.17;;;8.10;99.90;;;;;;5000712;28;20436;-74
2022/12/28 08:09:13;;;;;;;13.02;9.02;;;8.10;99.90;;;;;;5007623;28;20412;-74
2022/12/28 08:11:41;;;;;;;15.20;9.63;;;8.20;99.90;;;;;;5007900;28;20424;-74
2022/12/28 08:14:07;;;;;;;14.02;9.63;;;8.20;99.90;;;;;;5007200;28;20416;-74
2022/12/28 08:16:36;;;;;;;18.70;10.77;;;8.20;99.90;;;;;;5007470;28;20934;-74
2022/12/28 08:19:02;;;;;;;16.67;10.23;;;8.30;99.90;;;;;;5023867;28;20937;-74
2022/12/28 08:21:33;;;;;;;16.63;10.70;;;8.30;99.90;;;;;;5010648;28;20862;-74
2022/12/28 08:24:00;;;;;;;17.65;10.75;;;8.40;99.90;;;;;;5027954;28;20412;-74
2022/12/28 08:26:27;;;;;;;17.30;10.40;;;8.40;99.90;;;;;;5028016;28;20433;-74
2022/12/28 08:28:55;;;;;;;17.05;11.02;;;8.50;99.90;;;;;;5027218;28;20433;-74
2022/12/28 08:31:26;;;;;;;18.58;11.02;;;8.50;99.90;;;;;;5010646;28;20449;-74
2022/12/28 08:33:53;;;;;;;17.45;10.80;;;8.50;99.90;;;;;;5007013;28;20966;-74
2022/12/28 08:36:19;;;;;;;16.75;10.73;;;8.50;99.90;;;;;;5026183;28;20439;-74
2022/12/28 08:38:45;;;;;;;16.77;10.80;;;8.60;99.90;;;;;;5010596;28;20396;-74
2022/12/28 08:41:20;;;;;;;18.52;10.85;;;8.50;99.90;;;;;;5010088;28;21005;-74
2022/12/28 08:43:46;;;;;;;16.10;10.73;;;8.60;99.90;;;;;;5010336;28;20938;-74
2022/12/28 08:46:18;;;;;;;17.45;12.18;;;8.60;99.90;;;;;;5010183;28;20530;-74
2022/12/28 08:48:45;;;;;;;19.02;11.50;;;8.60;99.90;;;;;;5009793;28;20477;-74
2022/12/28 08:51:25;;;;;;;16.23;11.55;;;8.60;99.90;;;;;;5028122;28;20411;-74
2022/12/28 08:53:51;;;;;;;19.05;12.25;;;8.60;99.90;;;;;;5009235;28;20414;-74
2022/12/28 08:56:20;;;;;;;17.63;11.40;;;8.60;99.90;;;;;;5029099;28;21283;-74
2022/12/28 08:58:47;;;;;;;19.63;12.32;;;8.60;99.90;;;;;;5010709;28;20867;-74
2022/12/28 09:01:18;;;;;;;17.85;12.60;;;8.60;99.90;;;;;;5009864;28;20408;-74
2022/12/28 09:03:47;;;;;;;16.65;11.73;;;8.60;99.90;;;;;;5028322;28;20403;-74
2022/12/28 09:06:16;;;;;;;16.77;12.02;;;8.60;99.90;;;;;;5027490;28;21142;-74
2022/12/28 09:08:41;;;;;;;16.67;12.38;;;8.60;99.90;;;;;;5009661;28;20417;-74
2022/12/28 09:11:10;;;;;;;17.67;12.53;;;8.60;99.90;;;;;;4993565;28;20403;-74
2022/12/28 09:13:36;;;;;;;19.15;12.27;;;8.60;99.90;;;;;;5010401;28;20498;-74
2022/12/28 09:16:28;;;;;;;17.63;12.20;;;8.60;99.90;;;;;;5026408;28;20506;-74
2022/12/28 09:18:59;;;;;;;17.63;11.80;;;8.60;99.90;;;;;;5008540;28;20530;-74
2022/12/28 09:21:31;;;;;;;18.43;12.30;;;8.60;99.90;;;;;;5027465;28;20410;-74
2022/12/28 09:23:57;;;;;;;17.03;11.60;;;8.60;99.90;;;;;;5009477;28;20458;-74
2022/12/28 09:26:25;;;;;;;12.98;10.15;;;8.60;99.90;;;;;;5027284;28;21171;-74
2022/12/28 09:28:53;;;;;;;13.98;9.68;;;8.60;99.90;;;;;;5009383;28;20415;-74
2022/12/28 09:31:20;;;;;;;12.52;8.55;;;8.60;99.90;;;;;;5009317;28;20418;-74
2022/12/28 09:33:58;;;;;;;12.00;8.00;;;8.60;99.90;;;;;;4993306;28;20923;-74
2022/12/28 09:36:29;;;;;;;10.00;7.20;;;8.60;99.90;;;;;;5009702;28;20426;-74
2022/12/28 09:38:56;;;;;;;10.98;7.07;;;8.60;99.90;;;;;;5009609;28;20502;-74
2022/12/28 09:41:27;;;;;;;9.80;6.68;;;8.60;99.90;;;;;;5002868;28;20411;-74
2022/12/28 09:44:06;;;;;;;11.02;6.68;;;8.60;99.90;;;;;;5009322;28;20422;-74
2022/12/28 09:46:35;;;;;;;8.38;5.45;;;8.60;99.90;;;;;;5027268;28;20492;-74
2022/12/28 09:49:05;;;;;;;8.90;5.68;;;8.60;99.90;;;;;;5009701;28;20585;-74
2022/12/28 09:51:36;;;;;;;8.35;5.35;;;8.60;99.90;;;;;;5027688;28;20495;-74
2022/12/28 09:54:03;;;;;;;8.43;5.32;;;8.60;99.90;;;;;;5000001;28;20414;-74
2022/12/28 09:56:34;;;;;;;8.70;5.50;;;8.70;99.90;;;;;;5009562;28;20423;-74
2022/12/28 09:59:02;;;;;;;8.13;5.28;;;8.70;99.90;;;;;;5018643;28;20398;-74
2022/12/28 10:01:28;;;;;;;7.85;4.90;;;8.70;99.90;;;;;;5012558;28;20411;-74
2022/12/28 10:03:55;;;;;;;8.27;4.80;;;8.70;99.90;;;;;;5013686;28;20411;-74
2022/12/28 10:06:24;;;;;;;7.15;4.70;;;8.70;99.90;;;;;;5031115;28;20943;-74
2022/12/28 10:08:53;;;;;;;7.20;4.90;;;8.70;99.90;;;;;;5013434;28;20498;-74
2022/12/28 10:11:29;;;;;;;7.57;4.45;;;8.70;99.90;;;;;;5030533;28;20407;-74
2022/12/28 10:14:00;;;;;;;7.10;4.57;;;8.70;99.90;;;;;;5013312;28;20469;-74
2022/12/28 10:16:29;;;;;;;7.03;4.18;;;8.70;99.90;;;;;;5028169;28;20490;-74
2022/12/28 10:18:55;;;;;;;7.15;4.32;;;8.70;99.90;;;;;;5013030;28;20813;-74
2022/12/28 10:21:23;;;;;;;7.72;4.38;;;8.70;99.90;;;;;;5013556;28;20814;-74
2022/12/28 10:23:52;;;;;;;7.07;4.33;;;8.70;99.90;;;;;;4997174;28;20822;-74
2022/12/28 10:26:19;;;;;;;6.15;4.22;;;8.80;99.90;;;;;;5013239;28;20439;-74
2022/12/28 10:28:50;;;;;;;8.85;4.75;;;8.80;99.90;;;;;;5012661;28;20501;-74
2022/12/28 10:31:30;;;;;;;9.02;4.78;;;8.80;99.90;;;;;;5012853;28;20419;-74
2022/12/28 10:33:55;;;;;;;7.80;4.70;;;8.80;99.90;;;;;;5012983;28;20493;-74
2022/12/28 10:36:22;;;;;;;8.95;5.10;;;8.80;99.90;;;;;;5031174;28;20554;-74
2022/12/28 10:38:54;;;;;;;8.07;4.68;;;8.80;99.90;;;;;;5031131;28;20399;-74
2022/12/28 10:41:21;;;;;;;8.80;4.80;;;8.80;99.90;;;;;;5025971;28;20415;-74
2022/12/28 10:43:51;;;;;;;8.95;4.90;;;8.90;99.90;;;;;;5012792;28;20411;-74
2022/12/28 10:46:20;;;;;;;10.43;5.27;;;8.80;99.90;;;;;;5012805;28;20442;-74
2022/12/28 10:48:52;;;;;;;6.50;4.00;;;8.80;99.90;;;;;;5012430;28;20438;-74
2022/12/28 10:51:20;;;;;;;8.18;4.30;;;8.80;99.90;;;;;;5030359;28;20402;-74
2022/12/28 10:53:54;;;;;;;7.93;4.20;;;8.80;99.90;;;;;;5012771;28;20415;-74
2022/12/28 10:56:28;;;;;;;6.82;3.88;;;8.90;99.90;;;;;;5012631;28;20761;-74
2022/12/28 10:59:09;;;;;;;7.07;3.80;;;8.90;99.90;;;;;;5030477;28;20407;-75
2022/12/28 11:01:35;;;;;;;6.53;3.60;;;8.90;99.90;;;;;;5029671;28;20976;-74
2022/12/28 11:04:05;;;;;;;8.85;3.80;;;8.90;99.90;;;;;;5030283;28;20464;-75
2022/12/28 11:06:33;;;;;;;7.80;3.83;;;8.90;99.90;;;;;;5012095;28;20435;-74
2022/12/28 11:09:19;;;;;;;8.38;4.15;;;8.90;99.90;;;;;;5012678;28;20403;-74
2022/12/28 11:11:46;;;;;;;7.72;4.10;;;8.90;99.90;;;;;;5010067;28;20430;-74
2022/12/28 11:14:27;;;;;;;9.05;4.38;;;8.90;99.90;;;;;;5012262;28;20407;-74
2022/12/28 11:16:53;;;;;;;8.45;4.28;;;8.90;99.90;;;;;;5021271;28;20497;-75
2022/12/28 11:19:20;;;;;;;8.90;4.65;;;8.90;99.90;;;;;;5011882;28;21052;-74
2022/12/28 11:21:47;;;;;;;9.52;5.10;;;8.90;99.90;;;;;;5011970;28;20419;-74
2022/12/28 11:24:15;;;;;;;11.07;5.30;;;8.90;99.90;;;;;;5029387;28;20418;-75
2022/12/28 11:26:49;;;;;;;9.75;5.53;;;8.90;99.90;;;;;;5029433;28;20496;-74
2022/12/28 11:29:17;;;;;;;11.30;6.10;;;8.90;99.90;;;;;;5029554;28;20498;-73
2022/12/28 11:31:52;;;;;;;10.00;5.77;;;8.90;99.90;;;;;;5029600;28;20434;-74
2022/12/28 11:34:22;;;;;;;9.45;5.13;;;8.90;99.90;;;;;;5028802;28;20418;-74
2022/12/28 11:36:48;;;;;;;8.25;4.60;;;8.90;99.90;;;;;;5012243;28;20846;-74
2022/12/28 11:39:26;;;;;;;7.25;4.60;;;8.90;99.90;;;;;;5011714;28;20437;-74
2022/12/28 11:41:59;;;;;;;8.00;4.45;;;8.90;99.90;;;;;;5011423;28;20478;-74
2022/12/28 11:44:33;;;;;;;8.45;3.90;;;8.90;99.90;;;;;;5012151;28;20415;-74
2022/12/28 11:47:04;;;;;;;6.68;4.03;;;8.90;99.90;;;;;;5011625;28;20443;-74
2022/12/28 11:49:34;;;;;;;7.82;3.90;;;8.90;99.90;;;;;;5011680;28;20411;-74
2022/12/28 11:52:32;;;;;;;6.33;3.77;;;8.90;99.90;;;;;;5028763;28;20972;-74
2022/12/28 11:55:23;;;;;;;6.07;3.33;;;9.00;99.90;;;;;;5029095;28;20419;-74
2022/12/28 11:57:49;;;;;;;6.40;3.43;;;9.00;99.90;;;;;;4995238;28;20486;-74
2022/12/28 12:00:20;;;;;;;5.95;3.25;;;9.00;99.90;;;;;;5011131;28;21088;-74
2022/12/28 12:03:05;;;;;;;5.28;3.22;;;9.00;99.90;;;;;;5010983;28;20443;-74
2022/12/28 12:05:37;;;;;;;5.63;2.92;;;9.00;99.90;;;;;;5020903;28;20422;-74
2022/12/28 12:08:14;;;;;;;6.20;3.38;;;9.00;99.90;;;;;;5011082;28;20437;-74
2022/12/28 12:10:43;;;;;;;4.87;3.13;;;9.10;99.90;;;;;;5011503;28;20498;-74
2022/12/28 12:13:24;;;;;;;5.15;2.97;;;9.10;99.90;;;;;;5025048;28;20821;-74
2022/12/28 12:15:54;;;;;;;4.70;3.10;;;9.10;99.90;;;;;;5011168;28;20419;-74
2022/12/28 12:18:23;;;;;;;5.68;2.85;;;9.10;99.90;;;;;;5028072;28;20419;-74
2022/12/28 12:21:03;;;;;;;5.13;2.80;;;9.10;99.90;;;;;;5010806;28;20414;-73
2022/12/28 12:23:35;;;;;;;6.20;3.03;;;9.10;99.90;;;;;;5010690;28;20465;-74
2022/12/28 12:26:19;;;;;;;3.60;2.30;;;9.10;99.90;;;;;;5010325;28;20446;-74
2022/12/28 12:28:51;;;;;;;4.87;2.73;;;9.10;99.90;;;;;;5028469;28;20446;-74
2022/12/28 12:31:42;;;;;;;3.78;2.30;;;9.10;99.90;;;;;;5028059;28;20415;-74
2022/12/28 12:34:43;;;;;;;3.78;2.03;;;9.10;99.90;;;;;;5027775;28;20411;-74
2022/12/28 12:37:34;;;;;;;3.97;2.53;;;9.10;99.90;;;;;;5010330;28;20934;-74
2022/12/28 12:40:08;;;;;;;4.47;2.60;;;9.10;99.90;;;;;;5004879;28;20514;-75
2022/12/28 12:42:44;;;;;;;3.40;2.20;;;9.10;99.90;;;;;;5010696;28;20930;-74
2022/12/28 12:45:31;;;;;;;3.85;2.30;;;9.10;99.90;;;;;;5024295;28;20961;-74
2022/12/28 12:48:08;;;;;;;3.60;2.33;;;9.10;99.90;;;;;;5028427;28;20417;-74
2022/12/28 12:50:53;;;;;;;3.25;1.83;;;9.10;99.90;;;;;;5008630;28;20480;-74
2022/12/28 12:53:24;;;;;;;4.40;2.08;;;9.10;99.90;;;;;;5009837;28;20415;-74
2022/12/28 12:56:12;;;;;;;3.70;1.90;;;9.10;99.90;;;;;;5025692;28;20400;-74
2022/12/28 12:59:07;;;;;;;3.70;2.10;;;9.10;99.90;;;;;;5026105;28;20410;-74
2022/12/28 13:01:46;;;;;;;3.08;1.75;;;9.10;99.90;;;;;;4974588;28;20781;-74
2022/12/28 13:04:21;;;;;;;3.13;2.20;;;9.10;99.90;;;;;;5026727;28;20407;-74
2022/12/28 13:06:49;;;;;;;3.00;1.80;;;9.10;99.90;;;;;;5025873;28;20439;-74
2022/12/28 13:09:17;;;;;;;2.83;1.80;;;9.10;99.90;;;;;;5028142;28;20411;-74
2022/12/28 13:11:42;;;;;;;2.45;1.65;;;9.10;99.90;;;;;;5010054;28;20415;-74
2022/12/28 13:14:23;;;;;;;3.30;1.90;;;9.00;99.90;;;;;;5008027;28;20414;-74
2022/12/28 13:16:56;;;;;;;3.05;2.00;;;9.00;99.90;;;;;;5000853;28;20501;-74
2022/12/28 13:19:25;;;;;;;2.63;1.70;;;9.10;99.90;;;;;;5009507;28;20505;-74
2022/12/28 13:21:52;;;;;;;3.05;1.83;;;9.00;99.90;;;;;;5028558;28;20415;-73
2022/12/28 13:24:22;;;;;;;3.30;1.77;;;9.00;99.90;;;;;;5003907;28;20412;-74
2022/12/28 13:26:48;;;;;;;3.92;2.10;;;9.00;99.90;;;;;;5027328;28;20442;-74
2022/12/28 13:29:18;;;;;;;3.20;2.10;;;9.00;99.90;;;;;;5027110;28;20465;-74
2022/12/28 13:31:48;;;;;;;3.45;2.03;;;9.00;99.90;;;;;;5007196;28;20419;-73
2022/12/28 13:34:23;;;;;;;4.18;2.08;;;9.00;99.90;;;;;;5009374;28;20418;-74
2022/12/28 13:36:57;;;;;;;2.50;1.70;;;9.00;99.90;;;;;;5027172;28;20977;-74